首页
METAR-TAF:

METAR-TAF

机场 :

坦皮科, 墨西哥

纬度: 22-17N, 经度: 097-52W, 海拔: 24米

当前天气观测

该预报发布于43分钟前的15:41 UTC
风速4节,风向北转西北
温度 18°C
湿度 64%
气压 1025 hPa
能見度: 12.9公里
阴天层高于7000英尺

METAR: MMTM 121541Z E33004KT 8SM OVC070 18/11 A3026 RMK 8/07/

时间: 10:24 (16:24 UTC)

预报

该预报发布于10小时和51分钟前的05:33 UTC
预报有效从12日的 06点(UTC)到 13日的 06点(UTC)
风速8节,风向
能見度: 10公里
多云层高于3000英尺
从 12日的 1800点(UTC)
风速12节,风向北转东北
能見度: 10公里
散云层高于3000英尺
多云层高于8000英尺
多云层高于25000英尺
从 13日的 0500点(UTC)
风速5节,风向
能見度: 10公里
散云层高于3000英尺
多云层高于8000英尺

TAF: MMTM 120533Z 1206/1306 01008KT P6SM BKN030 FM121800 02012KT P6SM SCT030 BKN080 BKN250 FM130500 09005KT P6SM SCT030 BKN080

超过4000个机场的气象观测和天气预报(METAR&TAF报告)。

可查询的气象台以黄色和红色小点在地图上表示。

将鼠标移到小点上方,可查看气象台名称。

然后点击查看天气观测和预报。

如需切换地图:点击带黑十字的绿色按钮放大地图;点击带横线的绿色按钮缩小地图;或者点击绿色箭头查看邻近地区的地图。


METAR-TAF: